Time;durP1;ratioP1;P1;durP2;ratioP2;P2;SDS_P1;SDS_P2;PMS_P1;PMS_P2;Temp;Humidity;BMP_temperature;BMP_pressure;BME280_temperature;BME280_humidity;BME280_pressure;Samples;Min_cycle;Max_cycle;Signal;HPM_P1;HPM_P2
2023/10/04 00:02:07;;;;;;;6.93;4.87;;;;;;;23.02;69.63;98622.31;4936134;29;20229;-26
2023/10/04 00:04:34;;;;;;;6.97;5.07;;;;;;;23.02;69.63;98622.31;4946367;29;20224;-26
2023/10/04 00:07:04;;;;;;;6.87;4.80;;;;;;;23.03;69.60;98625.75;4939703;29;20239;-27
2023/10/04 00:09:31;;;;;;;6.57;4.93;;;;;;;23.01;69.81;98612.00;4945824;28;20219;-27
2023/10/04 00:11:59;;;;;;;7.57;5.50;;;;;;;23.02;69.55;98624.88;4931243;29;20650;-29
2023/10/04 00:14:26;;;;;;;7.33;5.17;;;;;;;23.01;69.58;98628.25;4935828;29;20621;-26
2023/10/04 00:16:54;;;;;;;6.37;4.97;;;;;;;23.00;69.57;98623.94;4935552;29;20213;-26
2023/10/04 00:19:21;;;;;;;6.77;5.07;;;;;;;23.00;69.63;98626.50;4935478;29;20216;-26
2023/10/04 00:21:48;;;;;;;7.50;5.07;;;;;;;23.00;69.87;98623.94;4938938;29;20220;-26
2023/10/04 00:24:15;;;;;;;7.37;4.73;;;;;;;22.99;69.65;98624.75;4943669;28;20235;-26
2023/10/04 00:26:45;;;;;;;5.37;4.43;;;;;;;22.95;69.63;98620.31;4937721;29;20574;-27
2023/10/04 00:29:12;;;;;;;7.60;4.73;;;;;;;23.00;69.70;98629.06;4935865;28;20205;-27
2023/10/04 00:31:38;;;;;;;6.43;4.70;;;;;;;23.00;69.76;98621.38;4935014;29;20232;-26
2023/10/04 00:34:08;;;;;;;6.33;4.60;;;;;;;23.00;69.60;98623.06;4931839;29;20681;-26
2023/10/04 00:36:35;;;;;;;5.83;4.53;;;;;;;23.00;69.59;98621.38;4946616;29;20215;-26
2023/10/04 00:39:02;;;;;;;6.67;4.40;;;;;;;23.00;69.79;98620.50;4939880;29;20668;-26
2023/10/04 00:41:30;;;;;;;7.53;4.97;;;;;;;23.01;69.83;98619.69;4937226;28;20256;-26
2023/10/04 00:43:58;;;;;;;5.20;4.33;;;;;;;23.01;69.53;98612.00;4934286;29;20200;-26
2023/10/04 00:46:25;;;;;;;5.13;4.20;;;;;;;22.97;69.58;98611.00;4932858;29;20209;-26
2023/10/04 00:48:54;;;;;;;8.30;5.07;;;;;;;23.01;69.62;98614.56;4943740;29;20211;-26
2023/10/04 00:51:22;;;;;;;6.17;4.63;;;;;;;23.01;69.62;98622.25;4936196;28;20283;-29
2023/10/04 00:53:49;;;;;;;6.83;4.60;;;;;;;22.97;69.44;98612.66;4941267;29;20213;-26
2023/10/04 00:56:16;;;;;;;5.00;4.30;;;;;;;23.01;69.37;98618.00;4938013;28;20234;-26
2023/10/04 00:58:45;;;;;;;4.83;4.23;;;;;;;23.00;69.64;98606.00;4942076;29;20216;-27
2023/10/04 01:01:14;;;;;;;5.30;4.37;;;;;;;22.99;69.60;98609.38;4930356;29;20622;-26
2023/10/04 01:03:41;;;;;;;6.77;4.47;;;;;;;22.99;69.60;98614.50;4934472;29;20407;-26
2023/10/04 01:06:09;;;;;;;6.63;4.40;;;;;;;22.92;69.70;98604.78;4943625;29;20754;-27
2023/10/04 01:08:36;;;;;;;6.43;4.90;;;;;;;23.00;69.55;98623.06;4932507;29;20205;-26
2023/10/04 01:11:05;;;;;;;6.80;4.73;;;;;;;22.99;69.66;98619.63;4937745;28;20263;-26
2023/10/04 01:13:32;;;;;;;4.43;4.00;;;;;;;22.99;69.71;98623.88;4938436;29;20215;-28
2023/10/04 01:15:59;;;;;;;5.57;4.17;;;;;;;23.00;69.77;98617.91;4934524;29;20731;-26
2023/10/04 01:18:29;;;;;;;5.13;4.20;;;;;;;22.99;69.64;98611.94;4933926;29;20217;-26
2023/10/04 01:20:57;;;;;;;5.23;4.33;;;;;;;23.01;69.47;98617.13;4943831;29;20299;-26
2023/10/04 01:23:23;;;;;;;5.53;4.00;;;;;;;23.01;69.66;98612.00;4934640;29;20362;-26
2023/10/04 01:25:50;;;;;;;5.13;4.20;;;;;;;22.93;69.57;98600.56;4934322;29;20704;-26
2023/10/04 01:28:18;;;;;;;6.07;4.40;;;;;;;23.00;69.63;98616.25;4940733;29;20213;-27
2023/10/04 01:30:45;;;;;;;5.93;4.80;;;;;;;23.01;69.68;98610.28;4935017;28;20201;-26
2023/10/04 01:33:15;;;;;;;5.77;4.20;;;;;;;23.00;69.67;98611.13;4938428;28;20235;-28
2023/10/04 01:35:51;;;;;;;5.80;4.10;;;;;;;22.91;69.71;98600.50;4934585;29;20206;-26
2023/10/04 01:38:18;;;;;;;4.70;4.10;;;;;;;23.02;69.62;98618.88;4938022;29;20264;-27
2023/10/04 01:40:48;;;;;;;4.80;3.93;;;;;;;23.00;69.59;98603.44;4943852;29;20205;-30
2023/10/04 01:43:17;;;;;;;4.80;4.00;;;;;;;22.99;69.42;98609.38;4937758;29;20259;-27
2023/10/04 01:45:49;;;;;;;4.93;4.00;;;;;;;22.98;69.65;98605.03;4938360;29;20228;-26
2023/10/04 01:48:15;;;;;;;4.27;3.87;;;;;;;22.98;69.58;98606.75;4944546;29;20212;-26
2023/10/04 01:50:43;;;;;;;5.10;3.97;;;;;;;22.99;69.62;98605.94;4939077;28;20244;-26
2023/10/04 01:53:10;;;;;;;6.13;4.20;;;;;;;22.99;69.71;98609.38;4938965;28;20222;-26
2023/10/04 01:55:36;;;;;;;5.13;4.13;;;;;;;22.99;69.77;98606.81;4953607;28;20205;-26
2023/10/04 01:58:04;;;;;;;5.77;4.27;;;;;;;23.00;69.57;98600.84;4940745;28;20256;-26
2023/10/04 02:00:30;;;;;;;5.10;4.13;;;;;;;23.00;69.70;98602.53;4944181;28;20205;-26
2023/10/04 02:02:57;;;;;;;5.27;4.30;;;;;;;23.00;69.65;98600.84;4938674;29;20225;-28
2023/10/04 02:05:31;;;;;;;5.33;3.93;;;;;;;23.01;69.68;98596.63;4942361;29;20231;-26
2023/10/04 02:07:58;;;;;;;4.37;3.80;;;;;;;23.01;69.52;98599.19;4939694;29;20205;-26
2023/10/04 02:10:26;;;;;;;4.87;3.60;;;;;;;23.01;69.58;98601.75;4943551;28;20664;-26
2023/10/04 02:12:55;;;;;;;4.10;3.70;;;;;;;22.99;69.31;98595.66;4952842;28;20762;-26
2023/10/04 02:15:22;;;;;;;4.73;3.60;;;;;;;23.00;69.62;98598.28;4948978;29;20208;-28
2023/10/04 02:17:50;;;;;;;5.17;3.90;;;;;;;23.00;69.57;98605.09;4939195;29;20205;-26
2023/10/04 02:20:24;;;;;;;5.30;3.83;;;;;;;23.00;69.58;98610.22;4938252;29;20224;-26
2023/10/04 02:22:51;;;;;;;4.17;3.67;;;;;;;22.98;69.49;98610.16;4950259;29;20227;-26
2023/10/04 02:25:19;;;;;;;5.10;3.90;;;;;;;22.99;69.58;98609.38;4938493;29;20584;-26
2023/10/04 02:27:49;;;;;;;4.00;3.60;;;;;;;22.98;69.48;98607.59;4937217;29;20708;-28
2023/10/04 02:30:21;;;;;;;3.83;3.50;;;;;;;22.98;69.47;98611.88;4948129;29;20209;-26
2023/10/04 02:32:50;;;;;;;4.03;3.63;;;;;;;22.98;69.51;98610.16;4937087;29;20769;-29
2023/10/04 02:35:43;;;;;;;4.83;3.90;;;;;;;22.99;69.45;98605.94;4937059;29;20260;-28
2023/10/04 02:40:54;;;;;;;4.60;3.60;;;;;;;23.00;69.53;98595.72;4939769;29;20213;-26
2023/10/04 02:43:23;;;;;;;4.97;3.70;;;;;;;23.00;69.42;98600.84;4941860;29;20200;-27
2023/10/04 02:45:50;;;;;;;5.10;3.77;;;;;;;23.00;69.62;98600.84;4941515;28;20224;-29
2023/10/04 02:48:17;;;;;;;4.40;3.53;;;;;;;23.00;69.59;98600.84;4935700;29;20645;-27
2023/10/04 02:50:44;;;;;;;6.13;3.80;;;;;;;23.00;69.74;98602.53;4937215;29;20236;-26
2023/10/04 02:53:19;;;;;;;4.10;3.43;;;;;;;23.00;69.57;98611.13;4937761;29;20208;-28
2023/10/04 02:55:47;;;;;;;4.33;3.50;;;;;;;22.99;69.57;98611.94;4939864;29;20251;-26
2023/10/04 02:58:16;;;;;;;4.10;3.20;;;;;;;22.99;69.44;98611.94;4938930;29;20228;-28
2023/10/04 03:00:44;;;;;;;4.43;3.53;;;;;;;23.00;69.56;98613.69;4936350;29;20205;-26
2023/10/04 03:03:19;;;;;;;4.63;3.60;;;;;;;22.99;69.58;98619.63;4935945;29;20201;-26
2023/10/04 03:05:46;;;;;;;3.97;3.43;;;;;;;22.99;69.48;98616.19;4947408;29;20227;-27
2023/10/04 03:08:13;;;;;;;4.47;3.40;;;;;;;22.90;69.85;98608.13;4940907;29;20747;-26
2023/10/04 03:10:40;;;;;;;4.00;3.50;;;;;;;22.99;69.54;98618.75;4937601;29;20205;-27
2023/10/04 03:13:27;;;;;;;3.67;3.37;;;;;;;22.91;69.58;98613.31;4936675;29;20260;-27
2023/10/04 03:15:54;;;;;;;3.43;3.03;;;;;;;22.99;69.74;98618.75;4944676;29;20287;-31
2023/10/04 03:18:25;;;;;;;4.50;3.53;;;;;;;22.99;69.83;98617.06;4936656;29;20219;-26
2023/10/04 03:23:35;;;;;;;3.73;3.30;;;;;;;22.99;69.52;98599.13;4938750;29;20208;-31
2023/10/04 03:26:06;;;;;;;3.80;3.30;;;;;;;23.00;69.48;98602.53;4934494;29;20233;-26
2023/10/04 03:28:35;;;;;;;4.10;3.40;;;;;;;23.00;69.50;98602.53;4939594;29;20209;-28
2023/10/04 03:31:02;;;;;;;4.33;3.60;;;;;;;22.99;69.54;98600.81;4944297;29;20236;-27
2023/10/04 03:33:33;;;;;;;3.93;3.00;;;;;;;23.00;69.47;98607.66;4936488;29;20205;-29
2023/10/04 03:35:59;;;;;;;4.10;3.07;;;;;;;23.00;69.55;98607.66;4930709;29;20214;-26
2023/10/04 03:38:26;;;;;;;3.50;3.20;;;;;;;23.00;69.62;98612.78;4942114;29;20204;-26
2023/10/04 03:40:55;;;;;;;3.63;3.30;;;;;;;23.01;69.83;98612.00;4938017;29;20202;-29
2023/10/04 03:43:22;;;;;;;3.23;2.83;;;;;;;22.99;69.52;98617.06;4928884;29;20209;-26
2023/10/04 03:45:48;;;;;;;4.30;3.50;;;;;;;22.99;69.41;98611.06;4936003;29;20700;-26
2023/10/04 03:48:15;;;;;;;3.47;3.10;;;;;;;22.98;69.57;98609.31;4934324;29;20209;-36
2023/10/04 03:50:46;;;;;;;4.30;3.33;;;;;;;22.99;69.69;98611.94;4935683;29;20283;-26
2023/10/04 03:53:15;;;;;;;4.63;3.50;;;;;;;22.98;69.58;98610.16;4941159;29;20669;-26
2023/10/04 03:55:43;;;;;;;3.73;3.20;;;;;;;22.99;69.58;98613.63;4940217;29;20196;-27
2023/10/04 03:58:11;;;;;;;3.13;2.80;;;;;;;22.99;69.63;98613.63;4942107;29;20279;-26
2023/10/04 04:00:39;;;;;;;3.30;3.00;;;;;;;22.99;69.71;98611.94;4932250;29;20200;-26
2023/10/04 04:03:06;;;;;;;3.53;3.00;;;;;;;23.00;69.60;98612.78;4934195;29;20225;-28
2023/10/04 04:05:39;;;;;;;5.33;3.83;;;;;;;22.99;66.13;98605.94;4933837;29;20630;-26
2023/10/04 04:08:06;;;;;;;4.63;3.73;;;;;;;22.96;60.96;98609.25;4940054;28;20201;-26
2023/10/04 04:10:32;;;;;;;4.80;3.50;;;;;;;22.95;58.91;98606.63;4934730;29;20237;-29
2023/10/04 04:13:02;;;;;;;5.83;3.60;;;;;;;22.94;58.35;98615.09;4940656;29;20257;-26
2023/10/04 04:15:33;;;;;;;5.20;3.53;;;;;;;22.91;57.94;98609.84;4928702;29;20660;-28
2023/10/04 04:18:06;;;;;;;6.03;3.53;;;;;;;22.92;57.96;98611.63;4940648;29;20196;-26
2023/10/04 04:20:35;;;;;;;4.43;3.50;;;;;;;22.90;57.37;98611.56;4931586;29;20202;-28
2023/10/04 04:23:05;;;;;;;3.73;3.00;;;;;;;22.89;56.93;98609.78;4935057;29;20229;-26
2023/10/04 04:25:32;;;;;;;6.40;3.23;;;;;;;22.88;56.47;98608.06;4939648;29;20228;-27
2023/10/04 04:28:01;;;;;;;6.30;3.60;;;;;;;22.87;56.67;98614.00;4938731;28;20232;-30
2023/10/04 04:30:35;;;;;;;5.43;2.90;;;;;;;22.88;56.73;98614.84;4933253;29;20197;-27
2023/10/04 04:33:08;;;;;;;5.67;2.90;;;;;;;22.87;56.97;98616.56;4939831;29;20308;-28
2023/10/04 04:38:11;;;;;;;7.67;3.40;;;;;;;22.80;56.83;98606.00;4931707;29;20715;-31
2023/10/04 04:40:39;;;;;;;5.83;3.13;;;;;;;22.87;57.26;98616.56;4942886;29;20232;-26
2023/10/04 04:45:50;;;;;;;4.97;3.10;;;;;;;22.86;56.61;98619.91;4939659;29;20700;-26
2023/10/04 04:48:24;;;;;;;5.00;3.00;;;;;;;22.76;57.56;98604.09;4925415;29;20729;-29
2023/10/04 04:50:55;;;;;;;5.13;2.67;;;;;;;22.86;58.03;98617.34;4937521;29;20200;-28
2023/10/04 04:53:22;;;;;;;5.50;2.90;;;;;;;22.86;57.82;98609.66;4938777;29;20271;-26
2023/10/04 04:55:50;;;;;;;5.40;3.13;;;;;;;22.87;59.21;98615.69;4945446;28;20239;-26
2023/10/04 04:58:22;;;;;;;5.87;2.87;;;;;;;22.86;57.50;98616.50;4934904;29;20209;-29
2023/10/04 05:00:50;;;;;;;6.23;3.00;;;;;;;22.83;56.68;98612.09;4933983;29;20661;-26
2023/10/04 05:03:17;;;;;;;5.27;3.20;;;;;;;22.86;55.91;98613.94;4936836;29;20680;-28
2023/10/04 05:05:44;;;;;;;7.47;3.00;;;;;;;22.78;56.03;98599.94;4936229;29;20684;-26
2023/10/04 05:08:11;;;;;;;5.20;3.13;;;;;;;22.85;55.46;98615.63;4946888;29;20216;-26
2023/10/04 05:10:38;;;;;;;7.07;3.40;;;;;;;22.87;55.09;98615.69;4940920;28;20250;-26
2023/10/04 05:13:09;;;;;;;4.67;3.60;;;;;;;22.88;54.86;98622.56;4942451;29;20594;-27
2023/10/04 05:15:38;;;;;;;4.57;3.40;;;;;;;22.86;54.80;98622.47;4935495;29;20623;-27
2023/10/04 05:18:15;;;;;;;4.33;3.27;;;;;;;22.87;54.33;98626.81;4944795;29;20204;-27
2023/10/04 05:20:54;;;;;;;4.27;3.27;;;;;;;22.87;54.21;98626.81;4937195;28;20205;-27
2023/10/04 05:23:22;;;;;;;4.03;2.80;;;;;;;22.87;54.79;98621.69;4935258;29;20200;-26
2023/10/04 05:25:49;;;;;;;5.43;3.13;;;;;;;22.87;54.81;98626.81;4943775;29;20235;-28
2023/10/04 05:28:16;;;;;;;5.50;3.20;;;;;;;22.87;55.32;98620.81;4940849;28;20209;-27
2023/10/04 05:30:44;;;;;;;3.07;2.70;;;;;;;22.86;55.88;98619.06;4938385;29;20675;-26
2023/10/04 05:33:14;;;;;;;5.07;2.97;;;;;;;22.84;56.46;98616.44;4947267;29;20200;-27
2023/10/04 05:35:42;;;;;;;5.03;2.90;;;;;;;22.85;57.28;98619.88;4933447;29;20631;-26
2023/10/04 05:38:11;;;;;;;3.93;2.63;;;;;;;22.86;57.71;98626.75;4949196;28;20209;-26
2023/10/04 05:40:39;;;;;;;4.23;2.90;;;;;;;22.86;58.13;98637.00;4934060;29;20201;-31
2023/10/04 05:43:06;;;;;;;5.53;2.97;;;;;;;22.86;58.46;98640.44;4943692;28;20224;-27
2023/10/04 05:45:33;;;;;;;8.03;3.23;;;;;;;22.87;58.88;98646.44;4947140;29;20204;-27
2023/10/04 05:48:00;;;;;;;3.20;2.90;;;;;;;22.86;57.92;98643.00;4941550;28;20204;-27
2023/10/04 05:50:26;;;;;;;4.27;2.77;;;;;;;22.84;54.18;98648.88;4938417;28;20594;-29
2023/10/04 05:52:53;;;;;;;4.40;2.80;;;;;;;22.84;53.87;98652.34;4928560;29;20311;-35
2023/10/04 05:55:20;;;;;;;6.53;2.47;;;;;;;22.85;55.02;98655.75;4944055;28;20248;-26
2023/10/04 05:57:48;;;;;;;3.33;2.50;;;;;;;22.85;55.50;98659.19;4937157;29;20470;-28
2023/10/04 06:00:33;;;;;;;4.93;2.60;;;;;;;22.84;56.25;98660.03;4932167;29;20214;-26
2023/10/04 06:03:04;;;;;;;4.43;2.40;;;;;;;22.86;56.62;98663.50;4931878;29;20373;-33
2023/10/04 06:05:33;;;;;;;4.97;2.87;;;;;;;22.86;56.83;98655.81;4939437;29;20241;-30
2023/10/04 06:08:00;;;;;;;5.67;2.60;;;;;;;22.87;57.55;98659.25;4940261;29;20715;-26
2023/10/04 06:10:26;;;;;;;5.63;3.20;;;;;;;22.85;57.58;98658.31;4931831;29;20209;-28
2023/10/04 06:12:54;;;;;;;4.13;2.20;;;;;;;22.86;58.02;98660.09;4923154;29;20232;-29
2023/10/04 06:15:20;;;;;;;3.73;2.33;;;;;;;22.86;58.40;98668.63;4929992;29;20208;-30
2023/10/04 06:17:47;;;;;;;4.93;2.73;;;;;;;22.86;58.82;98673.75;4930247;29;20260;-27
2023/10/04 06:20:25;;;;;;;4.47;2.77;;;;;;;22.87;59.05;98677.22;4935595;29;20205;-26
2023/10/04 06:22:55;;;;;;;6.47;2.83;;;;;;;22.87;59.22;98674.63;4931758;29;20293;-26
2023/10/04 06:25:22;;;;;;;4.30;2.50;;;;;;;22.85;59.25;98674.56;4936173;29;20342;-28
2023/10/04 06:27:50;;;;;;;3.67;2.60;;;;;;;22.80;59.64;98667.53;4934487;28;20225;-26
2023/10/04 06:30:21;;;;;;;4.87;2.33;;;;;;;22.90;59.82;98677.34;4936056;29;20209;-29
2023/10/04 06:32:52;;;;;;;4.50;2.73;;;;;;;22.89;59.95;98684.13;4939501;28;20224;-29
2023/10/04 06:35:25;;;;;;;3.00;2.40;;;;;;;22.89;60.29;98676.44;4932536;28;20234;-33
2023/10/04 06:37:53;;;;;;;3.87;2.70;;;;;;;22.90;60.27;98682.47;4934254;29;20209;-26
2023/10/04 06:40:20;;;;;;;2.33;2.10;;;;;;;22.91;60.45;98692.78;4937586;28;20723;-29
2023/10/04 06:42:51;;;;;;;6.07;2.63;;;;;;;22.91;60.65;98690.22;4933999;29;20643;-29
2023/10/04 06:45:24;;;;;;;3.67;2.20;;;;;;;22.92;60.70;98696.22;4939506;29;20205;-30
2023/10/04 06:47:53;;;;;;;6.03;2.80;;;;;;;22.92;60.80;98688.53;4932625;29;20221;-29
2023/10/04 06:50:21;;;;;;;4.10;2.50;;;;;;;22.91;60.63;98689.31;4934071;29;20219;-33
2023/10/04 06:52:48;;;;;;;4.60;2.83;;;;;;;22.92;60.93;98683.41;4927612;29;20284;-40
2023/10/04 06:55:15;;;;;;;3.50;2.57;;;;;;;22.92;61.11;98680.84;4934101;29;20205;-27
2023/10/04 06:57:43;;;;;;;4.70;2.60;;;;;;;22.92;61.20;98676.56;4935699;29;20208;-26
2023/10/04 07:00:31;;;;;;;3.87;2.37;;;;;;;22.92;61.36;98681.69;4941176;28;20216;-26
2023/10/04 07:02:58;;;;;;;2.37;2.17;;;;;;;22.92;61.58;98681.69;4927664;29;20276;-30
2023/10/04 07:05:32;;;;;;;3.20;2.40;;;;;;;22.93;61.43;98680.03;4941047;28;20268;-26
2023/10/04 07:07:59;;;;;;;5.83;2.60;;;;;;;22.93;61.55;98673.22;4933956;29;20247;-29
2023/10/04 07:10:26;;;;;;;3.53;2.70;;;;;;;22.94;61.58;98679.22;4936055;29;20212;-26
2023/10/04 07:12:54;;;;;;;4.30;2.40;;;;;;;22.94;61.79;98681.78;4933609;29;20292;-28
2023/10/04 07:15:21;;;;;;;3.03;2.30;;;;;;;22.95;61.76;98691.22;4939166;29;20217;-26
2023/10/04 07:17:48;;;;;;;5.50;2.20;;;;;;;22.95;61.93;98683.53;4939512;29;20204;-28
2023/10/04 07:20:15;;;;;;;4.47;2.50;;;;;;;22.95;61.83;98683.53;4932052;29;20304;-26
2023/10/04 07:22:42;;;;;;;2.93;2.30;;;;;;;22.95;62.00;98691.22;4940039;29;20717;-28
2023/10/04 07:25:12;;;;;;;3.37;2.20;;;;;;;22.96;61.90;98685.28;4934812;28;20668;-30
2023/10/04 07:27:40;;;;;;;2.67;2.10;;;;;;;22.95;61.92;98686.09;4948937;28;20262;-30
2023/10/04 07:30:07;;;;;;;3.77;2.17;;;;;;;22.95;62.24;98696.38;4935202;29;20305;-26
2023/10/04 07:32:34;;;;;;;4.03;2.50;;;;;;;22.95;62.22;98697.22;4930202;29;20985;-26
2023/10/04 07:35:01;;;;;;;3.60;2.17;;;;;;;22.95;62.46;98698.91;4938422;28;20224;-26
2023/10/04 07:37:28;;;;;;;3.43;2.37;;;;;;;22.94;62.47;98700.59;4933349;29;20263;-28
2023/10/04 07:39:55;;;;;;;2.47;2.27;;;;;;;22.96;62.46;98703.22;4939464;29;20259;-29
2023/10/04 07:42:21;;;;;;;4.00;2.00;;;;;;;22.95;62.63;98702.34;4934698;29;20252;-26
2023/10/04 07:44:48;;;;;;;3.70;2.27;;;;;;;22.96;62.53;98703.22;4941980;29;20295;-26
2023/10/04 07:47:15;;;;;;;3.60;2.47;;;;;;;22.96;62.73;98698.09;4933079;29;20767;-28
2023/10/04 07:49:41;;;;;;;2.70;2.40;;;;;;;22.96;62.64;98696.44;4945275;28;20255;-28
2023/10/04 07:52:08;;;;;;;3.43;2.30;;;;;;;22.95;62.85;98697.22;4936974;29;20279;-28
2023/10/04 07:54:35;;;;;;;2.70;2.30;;;;;;;22.96;62.76;98701.56;4937712;28;20245;-28
2023/10/04 07:57:03;;;;;;;2.60;2.20;;;;;;;22.96;62.89;98701.56;4935009;29;20454;-35
2023/10/04 07:59:31;;;;;;;2.80;2.13;;;;;;;22.96;62.83;98705.78;4933496;29;20228;-29
2023/10/04 08:01:58;;;;;;;3.47;2.13;;;;;;;22.96;62.92;98703.22;4935977;29;20224;-28
2023/10/04 08:04:25;;;;;;;3.63;2.43;;;;;;;22.95;62.99;98710.03;4934608;29;20215;-31
2023/10/04 08:06:52;;;;;;;2.70;2.10;;;;;;;22.95;63.13;98702.34;4942876;29;20256;-30
2023/10/04 08:09:19;;;;;;;2.30;2.10;;;;;;;22.95;63.07;98707.47;4936351;29;20231;-28
2023/10/04 08:11:46;;;;;;;2.30;2.10;;;;;;;22.95;63.13;98701.50;4935376;28;20731;-28
2023/10/04 08:14:12;;;;;;;2.40;2.10;;;;;;;22.95;63.26;98704.06;4935306;29;20201;-31
2023/10/04 08:16:39;;;;;;;2.37;2.17;;;;;;;22.95;63.56;98699.78;4925114;29;20205;-26
2023/10/04 08:19:06;;;;;;;2.20;2.00;;;;;;;22.95;63.14;98706.63;4932620;29;20576;-26
2023/10/04 08:21:33;;;;;;;2.17;1.97;;;;;;;22.95;63.31;98709.19;4938257;29;20229;-27
2023/10/04 08:24:00;;;;;;;2.63;2.10;;;;;;;22.96;63.32;98705.78;4932827;29;20208;-29
2023/10/04 08:26:27;;;;;;;3.07;2.50;;;;;;;22.95;63.37;98710.03;4935147;29;20486;-33
2023/10/04 08:28:53;;;;;;;2.10;1.90;;;;;;;22.95;63.45;98710.03;4933822;29;20260;-27
2023/10/04 08:31:20;;;;;;;2.80;2.10;;;;;;;22.96;63.36;98710.91;4926808;29;20257;-28
2023/10/04 08:33:48;;;;;;;2.70;2.00;;;;;;;22.95;63.54;98707.47;4938515;29;20258;-33
2023/10/04 08:36:16;;;;;;;3.67;2.50;;;;;;;22.97;63.54;98707.53;4933417;29;20240;-27
2023/10/04 08:38:45;;;;;;;3.00;2.50;;;;;;;22.97;63.69;98712.66;4938069;28;20264;-26
2023/10/04 08:41:12;;;;;;;2.40;2.00;;;;;;;22.97;63.60;98715.22;4931881;29;20232;-29
2023/10/04 08:43:38;;;;;;;2.93;2.10;;;;;;;22.95;64.06;98712.59;4933486;29;20208;-35
2023/10/04 08:46:07;;;;;;;2.30;1.70;;;;;;;22.94;63.62;98699.72;4930836;29;20217;-32
2023/10/04 08:48:34;;;;;;;3.00;2.17;;;;;;;22.96;63.62;98705.78;4939116;29;20311;-28
2023/10/04 08:51:23;;;;;;;2.60;2.00;;;;;;;22.93;63.48;98703.09;4932985;29;20235;-26
2023/10/04 08:54:16;;;;;;;2.40;2.20;;;;;;;22.87;63.53;98696.03;4926648;29;20201;-32
2023/10/04 08:56:52;;;;;;;2.20;2.00;;;;;;;22.95;63.69;98706.63;4948563;28;20200;-26
2023/10/04 08:59:18;;;;;;;2.17;1.97;;;;;;;22.95;63.81;98707.47;4936185;28;20215;-26
2023/10/04 09:01:46;;;;;;;3.27;2.00;;;;;;;22.96;63.36;98701.56;4912958;29;20586;-30
2023/10/04 09:04:13;;;;;;;2.90;2.03;;;;;;;22.96;63.79;98696.44;4940276;28;20209;-36
2023/10/04 09:06:42;;;;;;;2.70;1.93;;;;;;;22.96;63.84;98696.44;4933188;29;20228;-28
2023/10/04 09:09:11;;;;;;;1.90;1.70;;;;;;;22.96;63.83;98696.44;4931383;29;20221;-28
2023/10/04 09:11:38;;;;;;;2.40;2.20;;;;;;;22.96;63.39;98706.69;4929689;29;20220;-29
2023/10/04 09:14:06;;;;;;;3.50;2.07;;;;;;;22.95;62.15;98702.34;4932760;29;20209;-28
2023/10/04 09:16:32;;;;;;;4.13;2.80;;;;;;;22.96;62.03;98699.00;4930934;29;20223;-32
2023/10/04 09:19:14;;;;;;;3.43;2.17;;;;;;;22.96;62.42;98701.56;4937924;29;20200;-27
2023/10/04 09:21:41;;;;;;;2.27;1.83;;;;;;;22.96;62.56;98692.97;4927080;29;20283;-31
2023/10/04 09:24:12;;;;;;;2.83;2.30;;;;;;;22.95;62.70;98702.34;4931210;29;20201;-30
2023/10/04 09:26:42;;;;;;;2.50;2.30;;;;;;;22.97;62.71;98698.16;4935079;29;20204;-30
2023/10/04 09:29:11;;;;;;;3.83;2.53;;;;;;;22.98;63.12;98704.19;4932170;29;20259;-27
2023/10/04 09:31:50;;;;;;;2.67;2.30;;;;;;;22.98;63.11;98688.78;4935250;29;20219;-27
2023/10/04 09:34:17;;;;;;;5.10;2.20;;;;;;;22.98;63.38;98694.78;4932773;29;20209;-35
2023/10/04 09:36:45;;;;;;;2.90;2.20;;;;;;;22.98;63.22;98689.66;4933035;29;20205;-26
2023/10/04 09:39:16;;;;;;;5.27;2.70;;;;;;;22.99;63.50;98688.84;4933901;29;20590;-27
2023/10/04 09:41:44;;;;;;;3.33;2.10;;;;;;;23.01;63.49;98681.22;4933671;29;20225;-26
2023/10/04 09:44:23;;;;;;;5.40;2.67;;;;;;;23.01;63.49;98686.34;4929302;29;20228;-29
2023/10/04 09:46:56;;;;;;;2.67;2.20;;;;;;;23.01;63.73;98676.09;4930865;29;20319;-29
2023/10/04 09:49:25;;;;;;;4.30;2.50;;;;;;;23.02;63.59;98676.16;4936735;29;20626;-29
2023/10/04 09:51:53;;;;;;;3.03;2.20;;;;;;;23.01;63.88;98679.53;4937920;28;20232;-27
2023/10/04 09:54:20;;;;;;;5.13;2.13;;;;;;;23.02;63.89;98668.47;4930169;29;20206;-26
2023/10/04 09:56:47;;;;;;;2.67;2.10;;;;;;;23.03;63.81;98666.75;4933166;28;20274;-29
2023/10/04 09:59:16;;;;;;;3.93;2.67;;;;;;;23.01;63.90;98664.13;4935531;29;20288;-26
2023/10/04 10:01:43;;;;;;;6.73;2.30;;;;;;;23.00;63.96;98659.84;4937077;29;20221;-26
2023/10/04 10:04:15;;;;;;;2.63;2.10;;;;;;;23.01;64.04;98658.16;4929782;29;20205;-27
2023/10/04 10:06:51;;;;;;;7.80;2.50;;;;;;;22.99;64.09;98650.41;4925267;28;20205;-26
2023/10/04 10:09:20;;;;;;;4.20;2.17;;;;;;;22.99;63.90;98652.06;4955715;28;20258;-32
2023/10/04 10:11:52;;;;;;;4.10;2.20;;;;;;;22.99;63.94;98647.84;4941434;28;20228;-27
2023/10/04 10:14:20;;;;;;;2.70;2.13;;;;;;;23.00;63.91;98647.00;4944706;28;20660;-28
2023/10/04 10:16:46;;;;;;;4.57;1.93;;;;;;;22.99;64.01;98644.38;4933878;29;20216;-29
2023/10/04 10:19:13;;;;;;;3.30;2.00;;;;;;;23.00;64.08;98643.56;4944400;29;20216;-28
2023/10/04 10:22:07;;;;;;;3.43;2.30;;;;;;;23.00;64.08;98652.13;4917436;29;20228;-26
2023/10/04 10:24:34;;;;;;;2.07;1.87;;;;;;;23.00;64.24;98648.69;4941162;29;20291;-26
2023/10/04 10:27:02;;;;;;;5.70;2.33;;;;;;;22.82;64.17;98614.59;4934983;29;20239;-31
2023/10/04 10:29:30;;;;;;;2.10;1.80;;;;;;;22.99;64.27;98647.84;4937211;29;20216;-26
2023/10/04 10:31:57;;;;;;;4.60;1.93;;;;;;;22.99;64.34;98649.50;4940918;28;20228;-32
2023/10/04 10:34:23;;;;;;;3.27;2.30;;;;;;;23.01;64.29;98658.16;4940922;28;20271;-28
2023/10/04 10:37:10;;;;;;;2.40;2.17;;;;;;;23.00;64.34;98648.69;4946350;28;20209;-28
2023/10/04 10:39:46;;;;;;;4.43;2.13;;;;;;;22.99;64.40;98644.38;4938886;28;20291;-27
2023/10/04 10:42:14;;;;;;;3.10;2.13;;;;;;;23.00;64.32;98648.69;4936204;29;20228;-26
2023/10/04 10:44:41;;;;;;;4.03;2.20;;;;;;;22.99;64.32;98646.94;4938070;29;20208;-28
2023/10/04 10:47:25;;;;;;;4.20;2.27;;;;;;;23.00;64.38;98638.44;4931615;29;20786;-26
2023/10/04 10:49:55;;;;;;;5.57;2.13;;;;;;;22.97;64.29;98636.63;4946059;28;20200;-31
2023/10/04 10:52:33;;;;;;;6.97;2.40;;;;;;;22.99;64.35;98632.44;4935905;29;20775;-24
2023/10/04 10:55:05;;;;;;;3.27;2.23;;;;;;;23.00;64.36;98641.00;4936561;28;20209;-26
2023/10/04 10:57:33;;;;;;;3.10;2.03;;;;;;;22.99;64.43;98631.56;4934727;29;20577;-26
2023/10/04 11:02:40;;;;;;;4.10;2.13;;;;;;;22.99;64.47;98622.19;4937567;29;20315;-25
2023/10/04 11:05:08;;;;;;;3.63;2.27;;;;;;;23.00;64.56;98625.63;4944762;28;20219;-25
2023/10/04 11:07:37;;;;;;;2.70;2.20;;;;;;;22.99;64.78;98621.31;4945878;28;20231;-25
2023/10/04 11:10:06;;;;;;;3.40;2.27;;;;;;;22.99;64.57;98627.31;4931060;29;20216;-25
2023/10/04 11:12:38;;;;;;;3.40;2.20;;;;;;;23.00;64.83;98621.38;4933911;29;20730;-25
2023/10/04 11:15:09;;;;;;;6.23;2.43;;;;;;;23.00;64.50;98617.91;4932077;29;20300;-24
2023/10/04 11:17:37;;;;;;;5.87;2.50;;;;;;;22.99;64.76;98611.94;4940668;29;20205;-25
2023/10/04 11:20:10;;;;;;;2.90;2.10;;;;;;;23.01;64.62;98605.16;4935220;29;20208;-24
2023/10/04 11:22:37;;;;;;;3.97;2.23;;;;;;;22.99;64.63;98599.13;4934893;29;20628;-25
2023/10/04 11:25:08;;;;;;;4.63;2.63;;;;;;;22.92;64.57;98583.44;4938293;29;20810;-25
2023/10/04 11:27:37;;;;;;;4.23;2.20;;;;;;;22.98;64.43;98599.91;4934559;29;20233;-25
2023/10/04 11:30:04;;;;;;;5.90;2.63;;;;;;;22.98;64.41;98597.34;4937342;29;20296;-25
2023/10/04 11:32:31;;;;;;;5.00;2.60;;;;;;;23.00;64.44;98595.72;4930775;29;20233;-25
2023/10/04 11:34:59;;;;;;;4.60;2.53;;;;;;;23.00;64.55;98598.28;4933742;29;20205;-25
2023/10/04 11:37:31;;;;;;;3.23;2.50;;;;;;;23.00;64.60;98590.59;4936287;29;20201;-26
2023/10/04 11:39:59;;;;;;;4.90;2.80;;;;;;;23.01;64.66;98599.19;4934864;29;20209;-24
2023/10/04 11:42:26;;;;;;;7.80;2.93;;;;;;;23.01;64.65;98588.94;4931399;29;20319;-25
2023/10/04 11:44:53;;;;;;;7.10;3.33;;;;;;;23.01;64.75;98589.78;4938056;29;20344;-25
2023/10/04 11:47:32;;;;;;;9.20;4.27;;;;;;;23.03;64.76;98584.72;4931532;29;20236;-24
2023/10/04 11:49:59;;;;;;;11.53;4.80;;;;;;;23.04;64.64;98586.50;4935804;28;20271;-25
2023/10/04 11:52:29;;;;;;;11.93;4.50;;;;;;;23.03;64.80;98593.28;4931687;29;20291;-25
2023/10/04 11:54:56;;;;;;;13.87;4.93;;;;;;;23.04;64.98;98586.50;4933795;28;20233;-25
2023/10/04 11:57:27;;;;;;;10.37;5.37;;;;;;;23.04;64.67;98582.22;4929263;29;20655;-25